createdAt,value
2023-02-17T00:01:11.504Z,7.60
2023-02-17T00:03:57.543Z,7.50
2023-02-17T00:06:43.823Z,7.50
2023-02-17T00:09:29.326Z,7.40
2023-02-17T00:12:14.967Z,7.30
2023-02-17T00:15:00.591Z,7.30
2023-02-17T00:17:45.997Z,7.20
2023-02-17T00:20:31.729Z,7.20
2023-02-17T00:23:17.818Z,7.20
2023-02-17T00:26:07.654Z,7.10
2023-02-17T00:28:53.535Z,7.10
2023-02-17T00:31:38.797Z,7.10
2023-02-17T00:34:24.832Z,7.10
2023-02-17T00:37:11.212Z,7.00
2023-02-17T00:39:57.240Z,7.00
2023-02-17T00:42:42.820Z,7.00
2023-02-17T00:45:28.499Z,6.90
2023-02-17T00:48:14.232Z,6.90
2023-02-17T00:51:01.062Z,6.80
2023-02-17T00:53:47.267Z,6.80
2023-02-17T00:56:32.570Z,6.70
2023-02-17T00:59:18.020Z,6.70
2023-02-17T01:02:03.597Z,6.70
2023-02-17T01:04:48.953Z,6.60
2023-02-17T01:07:34.572Z,6.60
2023-02-17T01:10:19.970Z,6.60
2023-02-17T01:13:06.613Z,6.60
2023-02-17T01:15:53.256Z,6.50
2023-02-17T01:18:39.205Z,6.50
2023-02-17T01:21:26.298Z,6.40
2023-02-17T01:24:12.306Z,6.40
2023-02-17T01:26:57.787Z,6.50
2023-02-17T01:29:46.255Z,6.40
2023-02-17T01:32:31.815Z,6.30
2023-02-17T01:35:17.246Z,6.30
2023-02-17T01:38:03.705Z,6.30
2023-02-17T01:40:49.520Z,6.20
2023-02-17T01:43:35.656Z,6.20
2023-02-17T01:46:21.180Z,6.20
2023-02-17T01:49:25.809Z,6.20
2023-02-17T01:52:13.315Z,6.10
2023-02-17T01:55:01.058Z,6.10
2023-02-17T01:57:47.686Z,6.10
2023-02-17T02:00:34.121Z,6.10
2023-02-17T02:03:19.766Z,6.10
2023-02-17T02:06:07.823Z,6.00
2023-02-17T02:08:59.445Z,6.00
2023-02-17T02:11:48.503Z,6.00
2023-02-17T02:14:34.816Z,6.00
2023-02-17T02:17:26.778Z,6.00
2023-02-17T02:20:11.891Z,6.00
2023-02-17T02:23:03.719Z,6.00
2023-02-17T02:26:08.196Z,6.00
2023-02-17T02:29:03.356Z,6.00
2023-02-17T02:31:56.534Z,5.90
2023-02-17T02:34:47.097Z,5.90
2023-02-17T02:37:36.172Z,5.90
2023-02-17T02:40:24.297Z,5.90
2023-02-17T02:43:10.221Z,5.90
2023-02-17T02:45:55.817Z,5.80
2023-02-17T02:48:42.740Z,5.80
2023-02-17T02:51:32.416Z,5.80
2023-02-17T02:54:22.124Z,5.80
2023-02-17T02:57:08.067Z,5.80
2023-02-17T02:59:55.516Z,5.70
2023-02-17T03:02:46.132Z,5.70
2023-02-17T03:05:42.594Z,5.70
2023-02-17T03:08:32.134Z,5.70
2023-02-17T03:11:32.256Z,5.70
2023-02-17T03:14:20.613Z,5.70
2023-02-17T03:17:06.413Z,5.70
2023-02-17T03:19:52.540Z,5.70
2023-02-17T03:22:40.754Z,5.70
2023-02-17T03:25:26.834Z,5.70
2023-02-17T03:28:12.472Z,5.70
2023-02-17T03:30:59.388Z,5.70
2023-02-17T03:33:45.119Z,5.60
2023-02-17T03:36:30.634Z,5.60
2023-02-17T03:39:16.849Z,5.60
2023-02-17T03:42:02.744Z,5.60
2023-02-17T03:44:48.191Z,5.50
2023-02-17T03:47:34.017Z,5.50
2023-02-17T03:50:19.279Z,5.50
2023-02-17T03:53:05.217Z,5.50
2023-02-17T03:55:50.924Z,5.50
2023-02-17T03:58:36.974Z,5.50
2023-02-17T04:01:22.886Z,5.50
2023-02-17T04:04:08.259Z,5.50
2023-02-17T04:06:53.918Z,5.50
2023-02-17T04:09:39.062Z,5.50
2023-02-17T04:12:24.882Z,5.50
2023-02-17T04:15:10.801Z,5.50
2023-02-17T04:17:56.205Z,5.50
2023-02-17T04:20:42.316Z,5.50
2023-02-17T04:23:27.755Z,5.50
2023-02-17T04:26:13.312Z,5.50
2023-02-17T04:28:58.742Z,5.50
2023-02-17T04:31:44.033Z,5.50
2023-02-17T04:34:29.876Z,5.40
2023-02-17T04:37:15.635Z,5.40
2023-02-17T04:40:00.970Z,5.40
2023-02-17T04:42:46.797Z,5.40
2023-02-17T04:45:32.462Z,5.40
2023-02-17T04:48:18.520Z,5.30
2023-02-17T04:51:04.478Z,5.30
2023-02-17T04:53:49.753Z,5.30
2023-02-17T04:56:35.118Z,5.30
2023-02-17T04:59:20.729Z,5.30
2023-02-17T05:02:06.514Z,5.30
2023-02-17T05:04:51.824Z,5.20
2023-02-17T05:07:37.504Z,5.20
2023-02-17T05:10:24.304Z,5.20
2023-02-17T05:13:10.132Z,5.20
2023-02-17T05:15:55.985Z,5.20
2023-02-17T05:18:41.580Z,5.20
2023-02-17T05:21:27.311Z,5.10
2023-02-17T05:24:12.676Z,5.10
2023-02-17T05:26:58.551Z,5.10
2023-02-17T05:29:44.340Z,5.10
2023-02-17T05:32:30.049Z,5.10
2023-02-17T05:35:15.906Z,5.10
2023-02-17T05:38:01.545Z,5.10
2023-02-17T05:40:46.747Z,5.10
2023-02-17T05:43:32.603Z,5.00
2023-02-17T05:46:18.578Z,5.00
2023-02-17T05:49:03.958Z,5.00
2023-02-17T05:51:49.350Z,5.00
2023-02-17T05:54:35.030Z,4.90
2023-02-17T05:57:20.343Z,4.90
2023-02-17T06:00:06.737Z,4.90
2023-02-17T06:02:57.889Z,4.90
2023-02-17T06:05:44.890Z,4.90
2023-02-17T06:08:30.379Z,4.80
2023-02-17T06:11:16.273Z,4.90
2023-02-17T06:14:01.782Z,4.90
2023-02-17T06:16:47.420Z,4.90
2023-02-17T06:19:32.774Z,4.80
2023-02-17T06:22:20.935Z,4.80
2023-02-17T06:25:10.503Z,4.90
2023-02-17T06:27:55.812Z,4.80
2023-02-17T06:30:41.747Z,4.90
2023-02-17T06:33:27.461Z,4.90
2023-02-17T06:36:13.149Z,4.90
2023-02-17T06:38:58.927Z,5.00
2023-02-17T06:41:44.889Z,5.00
2023-02-17T06:44:31.239Z,5.00
2023-02-17T06:47:20.208Z,5.00
2023-02-17T06:50:06.065Z,5.00
2023-02-17T06:52:51.828Z,5.00
2023-02-17T06:55:40.996Z,5.00
2023-02-17T06:58:26.587Z,5.10
2023-02-17T07:01:20.436Z,5.10
2023-02-17T07:04:06.069Z,5.70
2023-02-17T07:06:52.677Z,6.60
2023-02-17T07:09:38.699Z,7.00
2023-02-17T07:12:24.194Z,7.00
2023-02-17T07:15:12.269Z,6.90
2023-02-17T07:17:58.252Z,7.30
2023-02-17T07:20:43.814Z,8.20
2023-02-17T07:23:29.686Z,9.00
2023-02-17T07:26:15.364Z,9.50
2023-02-17T07:29:01.793Z,9.60
2023-02-17T07:31:47.342Z,9.30
2023-02-17T07:34:32.684Z,9.00
2023-02-17T07:37:20.119Z,8.80
2023-02-17T07:40:06.404Z,8.80
2023-02-17T07:42:51.875Z,8.70
2023-02-17T07:45:37.898Z,8.80
2023-02-17T07:48:23.120Z,9.00
2023-02-17T07:51:10.117Z,9.10
2023-02-17T07:53:55.809Z,9.30
2023-02-17T07:56:41.548Z,9.60
2023-02-17T07:59:27.204Z,9.80
2023-02-17T08:02:12.942Z,9.90
2023-02-17T08:04:58.682Z,10.20
2023-02-17T08:07:44.317Z,10.40
2023-02-17T08:10:48.894Z,10.60
2023-02-17T08:13:38.138Z,10.80
2023-02-17T08:16:23.989Z,11.00
2023-02-17T08:19:09.557Z,11.20
2023-02-17T08:21:55.316Z,11.40
2023-02-17T08:24:40.831Z,11.60
2023-02-17T08:27:26.523Z,11.80
2023-02-17T08:30:12.350Z,11.80
2023-02-17T08:32:58.052Z,11.90
2023-02-17T08:35:44.262Z,11.90
2023-02-17T08:38:29.823Z,11.90
2023-02-17T08:41:17.402Z,11.90
2023-02-17T08:44:04.599Z,11.90
2023-02-17T08:46:50.802Z,12.00
2023-02-17T08:49:36.330Z,12.30
2023-02-17T08:52:22.123Z,12.40
2023-02-17T08:55:07.896Z,12.50
2023-02-17T08:57:54.016Z,12.60
2023-02-17T09:00:39.595Z,12.60
2023-02-17T09:03:25.768Z,12.40
2023-02-17T09:06:11.346Z,12.20
2023-02-17T09:08:56.786Z,12.20
2023-02-17T09:11:42.297Z,12.20
2023-02-17T09:14:28.526Z,12.30
2023-02-17T09:17:14.287Z,12.40
2023-02-17T09:19:59.754Z,12.50
2023-02-17T09:22:45.521Z,12.50
2023-02-17T09:25:30.871Z,12.60
2023-02-17T09:28:16.411Z,12.70
2023-02-17T09:31:12.313Z,12.60
2023-02-17T09:33:58.448Z,12.70
2023-02-17T09:36:43.689Z,12.70
2023-02-17T09:39:29.827Z,12.70
2023-02-17T09:42:22.971Z,12.80
2023-02-17T09:45:12.894Z,12.80
2023-02-17T09:48:00.869Z,13.00
2023-02-17T09:50:54.382Z,13.00
2023-02-17T09:53:52.128Z,13.00
2023-02-17T09:56:40.075Z,13.00
2023-02-17T09:59:46.150Z,12.90
2023-02-17T10:02:35.597Z,12.80
2023-02-17T10:05:23.002Z,12.90
2023-02-17T10:08:17.905Z,13.00
2023-02-17T10:11:24.766Z,13.00
2023-02-17T10:14:12.588Z,13.10
2023-02-17T10:17:07.271Z,13.00
2023-02-17T10:19:56.089Z,13.10
2023-02-17T10:22:43.712Z,13.20
2023-02-17T10:25:52.560Z,13.30
2023-02-17T10:28:49.176Z,13.50
2023-02-17T10:31:41.186Z,13.80
2023-02-17T10:35:05.835Z,14.00
2023-02-17T10:37:58.562Z,14.10
2023-02-17T10:40:47.432Z,14.10
2023-02-17T10:43:33.535Z,14.10
2023-02-17T10:46:22.009Z,14.00
2023-02-17T10:49:14.667Z,14.00
2023-02-17T10:52:19.902Z,14.00
2023-02-17T10:55:24.314Z,14.00
2023-02-17T10:58:13.040Z,13.80
2023-02-17T11:00:58.705Z,13.90
2023-02-17T11:03:44.248Z,14.00
2023-02-17T11:06:30.082Z,14.00
2023-02-17T11:09:18.414Z,14.00
2023-02-17T11:12:10.656Z,14.00
2023-02-17T11:14:56.147Z,14.10
2023-02-17T11:17:41.925Z,14.10
2023-02-17T11:20:29.527Z,14.10
2023-02-17T11:23:15.205Z,14.10
2023-02-17T11:26:02.478Z,14.30
2023-02-17T11:28:48.126Z,14.30
2023-02-17T11:31:33.498Z,14.40
2023-02-17T11:34:24.318Z,14.40
2023-02-17T11:37:14.442Z,14.30
2023-02-17T11:40:00.324Z,14.40
2023-02-17T11:42:54.691Z,14.30
2023-02-17T11:46:03.580Z,14.30
2023-02-17T11:49:07.980Z,14.40
2023-02-17T11:52:24.131Z,14.40
2023-02-17T11:55:34.688Z,14.40
2023-02-17T11:58:29.883Z,14.50
2023-02-17T12:01:15.225Z,14.50
2023-02-17T12:04:19.748Z,14.50
2023-02-17T12:07:17.543Z,14.60
2023-02-17T12:10:06.111Z,14.50
2023-02-17T12:13:11.742Z,14.60
2023-02-17T12:16:03.586Z,14.60
2023-02-17T12:19:08.107Z,14.60
2023-02-17T12:22:02.642Z,14.70
2023-02-17T12:24:48.583Z,14.70
2023-02-17T12:27:34.375Z,14.70
2023-02-17T12:30:19.865Z,14.70
2023-02-17T12:33:16.012Z,14.90
2023-02-17T12:36:03.361Z,14.90
2023-02-17T12:39:01.903Z,14.90
2023-02-17T12:41:49.471Z,14.90
2023-02-17T12:44:39.117Z,14.80
2023-02-17T12:47:27.515Z,14.80
2023-02-17T12:50:21.008Z,14.90
2023-02-17T12:53:08.655Z,15.00
2023-02-17T12:55:57.212Z,15.00
2023-02-17T12:58:43.007Z,15.00
2023-02-17T13:01:31.292Z,15.10
2023-02-17T13:04:18.289Z,15.10
2023-02-17T13:07:08.036Z,15.00
2023-02-17T13:09:54.460Z,15.10
2023-02-17T13:12:41.062Z,15.20
2023-02-17T13:15:32.239Z,15.20
2023-02-17T13:18:23.628Z,15.30
2023-02-17T13:21:28.741Z,15.20
2023-02-17T13:24:15.250Z,15.20
2023-02-17T13:27:22.013Z,15.20
2023-02-17T13:30:10.108Z,15.10
2023-02-17T13:33:02.197Z,15.10
2023-02-17T13:35:48.459Z,15.10
2023-02-17T13:38:35.089Z,15.00
2023-02-17T13:41:22.319Z,15.00
2023-02-17T13:44:37.039Z,15.00
2023-02-17T13:47:27.140Z,15.00
2023-02-17T13:50:31.680Z,15.00
2023-02-17T13:53:22.838Z,15.00
2023-02-17T13:56:09.715Z,15.00
2023-02-17T13:59:05.985Z,14.90
2023-02-17T14:01:52.646Z,15.00
2023-02-17T14:04:38.162Z,15.10
2023-02-17T14:07:24.113Z,15.20
2023-02-17T14:10:16.957Z,15.20
2023-02-17T14:13:05.078Z,15.30
2023-02-17T14:15:58.435Z,15.30
2023-02-17T14:18:44.103Z,15.30
2023-02-17T14:21:29.857Z,15.30
2023-02-17T14:24:26.324Z,15.20
2023-02-17T14:27:14.251Z,15.20
2023-02-17T14:29:59.727Z,15.20
2023-02-17T14:32:45.508Z,15.30
2023-02-17T14:35:32.578Z,15.40
2023-02-17T14:38:21.839Z,15.40
2023-02-17T14:41:09.270Z,15.50
2023-02-17T14:43:54.952Z,15.40
2023-02-17T14:46:40.937Z,15.50
2023-02-17T14:49:26.283Z,15.40
2023-02-17T14:52:20.697Z,15.40
2023-02-17T14:55:12.172Z,15.40
2023-02-17T14:57:57.774Z,15.40
2023-02-17T15:00:43.746Z,15.40
2023-02-17T15:03:31.640Z,15.30
2023-02-17T15:06:32.586Z,15.30
2023-02-17T15:09:21.388Z,15.30
2023-02-17T15:12:13.741Z,15.20
2023-02-17T15:14:59.527Z,15.20
2023-02-17T15:17:44.958Z,15.10
2023-02-17T15:20:30.667Z,15.10
2023-02-17T15:23:17.418Z,15.10
2023-02-17T15:26:02.974Z,15.00
2023-02-17T15:28:48.280Z,15.00
2023-02-17T15:31:35.206Z,14.90
2023-02-17T15:34:26.398Z,14.90
2023-02-17T15:37:12.295Z,14.90
2023-02-17T15:39:57.625Z,14.90
2023-02-17T15:42:44.643Z,14.80
2023-02-17T15:45:30.880Z,14.70
2023-02-17T15:48:22.612Z,14.70
2023-02-17T15:51:09.854Z,14.60
2023-02-17T15:53:55.118Z,14.50
2023-02-17T15:56:44.086Z,14.50
2023-02-17T15:59:29.887Z,14.40
2023-02-17T16:02:21.156Z,14.30
2023-02-17T16:05:06.842Z,14.30
2023-02-17T16:07:52.241Z,14.20
2023-02-17T16:10:40.167Z,14.20
2023-02-17T16:13:26.538Z,14.10
2023-02-17T16:16:19.695Z,14.10
2023-02-17T16:19:05.159Z,14.00
2023-02-17T16:21:50.856Z,14.00
2023-02-17T16:24:36.340Z,14.00
2023-02-17T16:27:21.649Z,13.90
2023-02-17T16:30:15.688Z,13.90
2023-02-17T16:33:02.096Z,13.80
2023-02-17T16:35:49.687Z,13.80
2023-02-17T16:38:35.003Z,13.70
2023-02-17T16:41:20.887Z,13.70
2023-02-17T16:44:07.828Z,13.70
2023-02-17T16:46:55.000Z,13.60
2023-02-17T16:49:47.045Z,13.60
2023-02-17T16:52:32.763Z,13.60
2023-02-17T16:55:19.523Z,13.50
2023-02-17T16:58:11.381Z,13.50
2023-02-17T17:00:56.688Z,13.40
2023-02-17T17:03:43.028Z,13.40
2023-02-17T17:06:29.808Z,13.40
2023-02-17T17:09:16.918Z,13.30
2023-02-17T17:12:02.531Z,13.30
2023-02-17T17:14:48.024Z,13.20
2023-02-17T17:17:38.842Z,13.20
2023-02-17T17:20:28.009Z,13.10
2023-02-17T17:23:14.838Z,13.00
2023-02-17T17:26:00.673Z,13.00
2023-02-17T17:28:48.967Z,13.00
2023-02-17T17:31:34.727Z,12.90
2023-02-17T17:34:20.364Z,12.80
2023-02-17T17:37:06.062Z,12.70
2023-02-17T17:39:51.680Z,12.60
2023-02-17T17:42:37.702Z,12.60
2023-02-17T17:45:24.337Z,12.50
2023-02-17T17:48:12.645Z,12.40
2023-02-17T17:50:59.311Z,12.30
2023-02-17T17:53:46.288Z,12.20
2023-02-17T17:56:33.671Z,12.00
2023-02-17T17:59:19.723Z,12.00
2023-02-17T18:02:05.351Z,11.80
2023-02-17T18:04:51.142Z,11.70
2023-02-17T18:07:38.485Z,11.60
2023-02-17T18:10:23.854Z,11.60
2023-02-17T18:13:10.407Z,11.50
2023-02-17T18:15:55.943Z,11.40
2023-02-17T18:18:41.404Z,11.40
2023-02-17T18:21:27.169Z,11.30
2023-02-17T18:24:12.661Z,11.20
2023-02-17T18:26:58.138Z,11.10
2023-02-17T18:29:43.798Z,11.10
2023-02-17T18:32:29.530Z,11.00
2023-02-17T18:35:15.415Z,11.00
2023-02-17T18:38:00.811Z,10.90
2023-02-17T18:40:46.636Z,10.90
2023-02-17T18:43:32.533Z,10.90
2023-02-17T18:46:18.893Z,10.80
2023-02-17T18:49:04.608Z,10.80
2023-02-17T18:51:50.359Z,10.70
2023-02-17T18:54:40.565Z,10.50
2023-02-17T18:57:26.204Z,10.40
2023-02-17T19:00:13.202Z,10.30
2023-02-17T19:02:59.051Z,10.30
2023-02-17T19:05:45.041Z,10.20
2023-02-17T19:08:30.451Z,10.10
2023-02-17T19:11:17.219Z,10.10
2023-02-17T19:14:03.110Z,10.10
2023-02-17T19:16:48.284Z,10.00
2023-02-17T19:19:35.962Z,10.00
2023-02-17T19:22:21.361Z,10.00
2023-02-17T19:25:06.859Z,10.00
2023-02-17T19:27:52.523Z,9.90
2023-02-17T19:30:37.784Z,9.90
2023-02-17T19:33:23.638Z,9.90
2023-02-17T19:36:10.209Z,9.90
2023-02-17T19:38:56.826Z,9.80
2023-02-17T19:41:42.503Z,9.80
2023-02-17T19:44:27.798Z,9.80
2023-02-17T19:47:13.316Z,9.80
2023-02-17T19:49:59.320Z,9.80
2023-02-17T19:52:44.609Z,9.80
2023-02-17T19:55:29.912Z,9.70
2023-02-17T19:58:15.067Z,9.80
2023-02-17T20:01:04.420Z,9.70
2023-02-17T20:03:49.834Z,9.70
2023-02-17T20:06:39.173Z,9.70
2023-02-17T20:09:24.516Z,9.70
2023-02-17T20:12:10.097Z,9.70
2023-02-17T20:14:55.630Z,9.60
2023-02-17T20:17:41.306Z,9.60
2023-02-17T20:20:26.533Z,9.60
2023-02-17T20:23:12.010Z,9.60
2023-02-17T20:25:58.511Z,9.60
2023-02-17T20:28:44.169Z,9.60
2023-02-17T20:31:30.234Z,9.60
2023-02-17T20:34:21.660Z,9.50
2023-02-17T20:37:08.114Z,9.50
2023-02-17T20:39:53.634Z,9.40
2023-02-17T20:42:39.089Z,9.40
2023-02-17T20:45:24.775Z,9.40
2023-02-17T20:48:10.772Z,9.30
2023-02-17T20:50:57.273Z,9.30
2023-02-17T20:53:42.411Z,9.30
2023-02-17T20:56:34.024Z,9.30
2023-02-17T20:59:20.609Z,9.20
2023-02-17T21:02:06.179Z,9.20
2023-02-17T21:04:51.853Z,9.20
2023-02-17T21:07:38.200Z,9.20
2023-02-17T21:10:25.565Z,9.10
2023-02-17T21:13:11.278Z,9.10
2023-02-17T21:15:57.092Z,9.10
2023-02-17T21:18:44.213Z,9.20
2023-02-17T21:21:31.676Z,9.20
2023-02-17T21:24:17.380Z,9.20
2023-02-17T21:27:02.722Z,9.20
2023-02-17T21:29:49.241Z,9.20
2023-02-17T21:32:34.988Z,9.30
2023-02-17T21:35:20.438Z,9.20
2023-02-17T21:38:06.078Z,9.20
2023-02-17T21:40:51.862Z,9.20
2023-02-17T21:43:57.530Z,9.20
2023-02-17T21:46:44.265Z,9.20
2023-02-17T21:49:29.988Z,9.20
2023-02-17T21:52:15.421Z,9.10
2023-02-17T21:55:01.571Z,9.10
2023-02-17T21:57:47.204Z,9.10
2023-02-17T22:00:33.015Z,9.00
2023-02-17T22:03:18.791Z,9.00
2023-02-17T22:06:13.939Z,9.00
2023-02-17T22:09:02.004Z,9.00
2023-02-17T22:11:47.542Z,9.10
2023-02-17T22:14:33.150Z,9.10
2023-02-17T22:17:18.884Z,9.10
2023-02-17T22:20:04.839Z,9.20
2023-02-17T22:22:50.811Z,9.20
2023-02-17T22:25:40.155Z,9.20
2023-02-17T22:28:25.783Z,9.20
2023-02-17T22:31:15.684Z,9.20
2023-02-17T22:34:06.388Z,9.30
2023-02-17T22:36:51.707Z,9.30
2023-02-17T22:39:37.629Z,9.30
2023-02-17T22:42:25.268Z,9.30
2023-02-17T22:45:10.718Z,9.30
2023-02-17T22:47:56.615Z,9.30
2023-02-17T22:50:41.993Z,9.30
2023-02-17T22:53:27.711Z,9.20
2023-02-17T22:56:13.651Z,9.20
2023-02-17T22:59:01.488Z,9.20
2023-02-17T23:01:47.311Z,9.20
2023-02-17T23:04:32.961Z,9.10
2023-02-17T23:07:18.696Z,9.10
2023-02-17T23:10:05.020Z,9.10
2023-02-17T23:12:50.344Z,9.00
2023-02-17T23:15:39.922Z,9.00
2023-02-17T23:18:25.475Z,9.00
2023-02-17T23:21:12.632Z,9.00
2023-02-17T23:23:58.308Z,9.00
2023-02-17T23:26:44.526Z,9.10
2023-02-17T23:29:30.763Z,9.10
2023-02-17T23:32:15.977Z,9.00
2023-02-17T23:35:02.042Z,9.00
2023-02-17T23:37:49.120Z,9.00
2023-02-17T23:40:38.278Z,9.00
2023-02-17T23:43:24.283Z,9.00
2023-02-17T23:46:09.929Z,9.00
2023-02-17T23:48:55.900Z,9.00
2023-02-17T23:51:42.032Z,9.00
2023-02-17T23:54:27.601Z,9.00
2023-02-17T23:57:13.088Z,8.90
2023-02-17T23:59:58.728Z,8.90
